createdAt,value
2017-12-12T00:00:00.775Z,2.37
2017-12-12T00:01:00.780Z,2.29
2017-12-12T00:02:00.784Z,2.41
2017-12-12T00:03:00.790Z,2.37
2017-12-12T00:04:01.247Z,2.44
2017-12-12T00:05:00.794Z,2.40
2017-12-12T00:06:00.799Z,2.29
2017-12-12T00:07:00.811Z,2.27
2017-12-12T00:09:00.818Z,2.22
2017-12-12T00:10:00.821Z,2.43
2017-12-12T00:11:00.819Z,2.40
2017-12-12T00:12:00.830Z,2.40
2017-12-12T00:13:00.839Z,2.33
2017-12-12T00:14:00.844Z,2.22
2017-12-12T00:15:00.850Z,2.25
2017-12-12T00:16:00.874Z,2.26
2017-12-12T00:17:00.855Z,2.26
2017-12-12T00:18:00.869Z,2.23
2017-12-12T00:19:00.865Z,2.32
2017-12-12T00:20:00.881Z,2.27
2017-12-12T00:21:00.876Z,2.33
2017-12-12T00:22:00.895Z,2.27
2017-12-12T00:23:00.880Z,2.22
2017-12-12T00:24:00.891Z,2.23
2017-12-12T00:25:00.918Z,2.22
2017-12-12T00:26:00.890Z,2.44
2017-12-12T00:27:00.952Z,2.61
2017-12-12T00:28:01.000Z,2.71
2017-12-12T00:29:00.920Z,2.61
2017-12-12T00:30:00.916Z,2.79
2017-12-12T00:31:00.923Z,2.95
2017-12-12T00:32:00.922Z,2.90
2017-12-12T00:33:00.933Z,2.86
2017-12-12T00:34:01.016Z,2.94
2017-12-12T00:35:00.941Z,2.92
2017-12-12T00:36:00.994Z,3.05
2017-12-12T00:37:00.960Z,3.19
2017-12-12T00:38:00.956Z,3.17
2017-12-12T00:40:00.976Z,3.19
2017-12-12T00:41:01.092Z,3.16
2017-12-12T00:42:03.509Z,3.25
2017-12-12T00:43:00.980Z,3.13
2017-12-12T00:44:00.993Z,2.98
2017-12-12T00:46:01.002Z,3.04
2017-12-12T00:47:01.000Z,3.28
2017-12-12T00:48:01.010Z,3.08
2017-12-12T00:49:01.027Z,3.28
2017-12-12T00:50:01.086Z,3.28
2017-12-12T00:51:01.029Z,3.13
2017-12-12T00:52:01.093Z,2.98
2017-12-12T00:53:03.690Z,2.68
2017-12-12T00:54:01.039Z,2.56
2017-12-12T00:55:01.171Z,2.47
2017-12-12T00:56:01.047Z,2.32
2017-12-12T00:57:01.053Z,2.25
2017-12-12T00:58:01.104Z,2.23
2017-12-12T01:00:01.066Z,2.09
2017-12-12T01:01:01.076Z,1.93
2017-12-12T01:02:01.081Z,1.88
2017-12-12T01:03:01.090Z,1.90
2017-12-12T01:04:01.103Z,1.95
2017-12-12T01:05:01.085Z,2.01
2017-12-12T01:06:01.100Z,2.01
2017-12-12T01:07:01.120Z,2.02
2017-12-12T01:08:01.122Z,1.88
2017-12-12T01:09:01.100Z,1.93
2017-12-12T01:10:01.120Z,1.85
2017-12-12T01:11:01.117Z,1.81
2017-12-12T01:12:01.113Z,1.88
2017-12-12T01:13:01.179Z,1.89
2017-12-12T01:14:01.134Z,1.90
2017-12-12T01:15:01.132Z,1.93
2017-12-12T01:16:01.130Z,1.89
2017-12-12T01:17:01.150Z,2.05
2017-12-12T01:18:01.150Z,1.82
2017-12-12T01:19:01.147Z,1.93
2017-12-12T01:21:01.164Z,1.88
2017-12-12T01:22:01.169Z,1.83
2017-12-12T01:23:01.168Z,1.89
2017-12-12T01:24:01.186Z,2.00
2017-12-12T01:25:01.184Z,2.00
2017-12-12T01:26:01.189Z,1.98
2017-12-12T01:27:01.189Z,1.89
2017-12-12T01:28:01.194Z,1.92
2017-12-12T01:29:01.201Z,1.95
2017-12-12T01:30:01.665Z,1.82
2017-12-12T01:31:01.204Z,1.85
2017-12-12T01:32:01.210Z,1.88
2017-12-12T01:33:01.218Z,1.85
2017-12-12T01:34:01.224Z,1.86
2017-12-12T01:35:01.239Z,1.88
2017-12-12T01:36:01.236Z,1.79
2017-12-12T01:37:01.244Z,1.89
2017-12-12T01:38:01.237Z,1.89
2017-12-12T01:39:01.245Z,1.82
2017-12-12T01:40:01.250Z,1.90
2017-12-12T01:41:01.257Z,1.90
2017-12-12T01:42:01.258Z,1.83
2017-12-12T01:43:01.272Z,1.71
2017-12-12T01:44:01.269Z,1.81
2017-12-12T01:45:01.278Z,1.85
2017-12-12T01:46:01.316Z,1.82
2017-12-12T01:47:01.282Z,1.77
2017-12-12T01:48:01.283Z,1.70
2017-12-12T01:49:01.285Z,1.64
2017-12-12T01:50:01.294Z,1.71
2017-12-12T01:51:01.579Z,1.68
2017-12-12T01:52:01.306Z,1.68
2017-12-12T01:53:01.308Z,1.67
2017-12-12T01:54:01.327Z,1.63
2017-12-12T01:55:01.317Z,1.60
2017-12-12T01:56:01.322Z,1.57
2017-12-12T01:57:01.319Z,1.54
2017-12-12T01:58:01.323Z,1.49
2017-12-12T01:59:01.433Z,1.61
2017-12-12T02:00:01.576Z,1.56
2017-12-12T02:01:01.382Z,1.54
2017-12-12T02:02:01.349Z,1.57
2017-12-12T02:03:01.479Z,1.53
2017-12-12T02:04:01.350Z,1.57
2017-12-12T02:05:01.358Z,1.52
2017-12-12T02:06:01.363Z,1.56
2017-12-12T02:07:01.377Z,1.50
2017-12-12T02:08:01.376Z,1.53
2017-12-12T02:09:01.377Z,1.53
2017-12-12T02:10:01.646Z,1.50
2017-12-12T02:11:01.460Z,1.60
2017-12-12T02:12:01.382Z,1.53
2017-12-12T02:13:01.391Z,1.47
2017-12-12T02:14:01.398Z,1.54
2017-12-12T02:15:01.408Z,1.63
2017-12-12T02:16:01.403Z,1.43
2017-12-12T02:17:01.723Z,1.46
2017-12-12T02:18:01.428Z,1.49
2017-12-12T02:19:01.424Z,1.43
2017-12-12T02:20:01.427Z,1.42
2017-12-12T02:21:01.424Z,1.43
2017-12-12T02:22:01.435Z,1.44
2017-12-12T02:23:01.432Z,1.44
2017-12-12T02:24:01.930Z,1.42
2017-12-12T02:25:01.448Z,1.42
2017-12-12T02:26:01.454Z,1.54
2017-12-12T02:27:01.588Z,1.47
2017-12-12T02:28:01.455Z,1.43
2017-12-12T02:29:01.462Z,1.56
2017-12-12T02:30:01.480Z,1.57
2017-12-12T02:31:01.780Z,1.53
2017-12-12T02:32:01.477Z,1.47
2017-12-12T02:33:01.483Z,1.54
2017-12-12T02:34:01.483Z,1.50
2017-12-12T02:35:01.758Z,1.63
2017-12-12T02:36:01.489Z,1.56
2017-12-12T02:37:01.503Z,1.56
2017-12-12T02:38:01.502Z,1.57
2017-12-12T02:39:01.530Z,1.53
2017-12-12T02:40:01.499Z,1.53
2017-12-12T02:41:01.511Z,1.65
2017-12-12T02:42:01.512Z,1.61
2017-12-12T02:43:01.516Z,1.68
2017-12-12T02:44:01.529Z,1.63
2017-12-12T02:45:01.528Z,1.56
2017-12-12T02:46:01.538Z,1.68
2017-12-12T02:47:01.547Z,1.65
2017-12-12T02:48:01.550Z,1.52
2017-12-12T02:49:01.546Z,1.65
2017-12-12T02:50:01.553Z,1.63
2017-12-12T02:51:01.557Z,1.54
2017-12-12T02:52:01.562Z,1.53
2017-12-12T02:53:01.569Z,1.70
2017-12-12T02:54:01.573Z,1.65
2017-12-12T02:55:01.561Z,1.72
2017-12-12T02:56:01.589Z,1.74
2017-12-12T02:57:01.581Z,1.71
2017-12-12T02:58:01.583Z,1.71
2017-12-12T02:59:01.585Z,1.60
2017-12-12T03:00:01.595Z,1.63
2017-12-12T03:01:01.595Z,1.70
2017-12-12T03:02:01.609Z,1.71
2017-12-12T03:03:01.605Z,1.65
2017-12-12T03:04:01.608Z,1.70
2017-12-12T03:05:01.679Z,1.68
2017-12-12T03:06:01.632Z,1.75
2017-12-12T03:07:01.626Z,1.68
2017-12-12T03:08:01.638Z,1.68
2017-12-12T03:09:01.625Z,1.70
2017-12-12T03:10:01.632Z,1.70
2017-12-12T03:11:01.962Z,1.70
2017-12-12T03:12:01.648Z,1.70
2017-12-12T03:13:01.650Z,1.68
2017-12-12T03:14:01.656Z,1.72
2017-12-12T03:15:01.661Z,1.70
2017-12-12T03:16:01.652Z,1.70
2017-12-12T03:17:01.664Z,1.68
2017-12-12T03:18:01.670Z,1.72
2017-12-12T03:19:01.791Z,1.65
2017-12-12T03:20:01.685Z,1.63
2017-12-12T03:21:01.752Z,1.71
2017-12-12T03:22:01.688Z,1.61
2017-12-12T03:23:01.691Z,1.65
2017-12-12T03:24:01.694Z,1.70
2017-12-12T03:25:01.874Z,1.65
2017-12-12T03:26:01.713Z,1.72
2017-12-12T03:27:01.702Z,1.70
2017-12-12T03:28:01.763Z,1.71
2017-12-12T03:29:01.716Z,1.71
2017-12-12T03:30:01.714Z,1.71
2017-12-12T03:31:01.724Z,1.74
2017-12-12T03:32:01.723Z,1.77
2017-12-12T03:33:01.725Z,1.81
2017-12-12T03:34:01.732Z,1.75
2017-12-12T03:35:01.742Z,1.82
2017-12-12T03:36:01.743Z,1.86
2017-12-12T03:37:01.746Z,1.82
2017-12-12T03:38:01.751Z,1.83
2017-12-12T03:39:01.751Z,1.79
2017-12-12T03:40:01.759Z,1.77
2017-12-12T03:41:01.761Z,1.81
2017-12-12T03:42:01.818Z,1.77
2017-12-12T03:43:01.761Z,1.82
2017-12-12T03:44:01.778Z,1.75
2017-12-12T03:45:01.793Z,1.79
2017-12-12T03:46:01.812Z,1.83
2017-12-12T03:47:01.790Z,1.86
2017-12-12T03:48:01.793Z,1.83
2017-12-12T03:49:01.795Z,1.83
2017-12-12T03:50:01.807Z,1.81
2017-12-12T03:51:01.803Z,1.89
2017-12-12T03:52:01.817Z,1.83
2017-12-12T03:53:01.813Z,1.88
2017-12-12T03:54:01.825Z,1.82
2017-12-12T03:55:01.827Z,1.83
2017-12-12T03:56:01.946Z,1.88
2017-12-12T03:57:01.832Z,1.90
2017-12-12T03:58:01.841Z,1.90
2017-12-12T03:59:01.832Z,1.89
2017-12-12T04:00:01.844Z,1.89
2017-12-12T04:01:01.848Z,1.98
2017-12-12T04:02:01.855Z,2.02
2017-12-12T04:03:01.857Z,1.90
2017-12-12T04:04:01.867Z,2.12
2017-12-12T04:05:01.862Z,1.95
2017-12-12T04:06:01.871Z,2.00
2017-12-12T04:07:02.214Z,2.11
2017-12-12T04:08:01.872Z,2.05
2017-12-12T04:09:01.880Z,2.05
2017-12-12T04:10:01.880Z,2.07
2017-12-12T04:11:01.903Z,2.09
2017-12-12T04:12:01.895Z,2.08
2017-12-12T04:13:01.895Z,2.09
2017-12-12T04:14:01.909Z,2.09
2017-12-12T04:15:01.905Z,2.07
2017-12-12T04:16:01.908Z,2.07
2017-12-12T04:17:01.918Z,2.08
2017-12-12T04:18:01.924Z,2.11
2017-12-12T04:19:02.018Z,2.12
2017-12-12T04:20:01.923Z,2.11
2017-12-12T04:21:01.930Z,2.12
2017-12-12T04:22:01.936Z,2.11
2017-12-12T04:23:01.941Z,2.12
2017-12-12T04:24:01.944Z,2.12
2017-12-12T04:25:01.951Z,2.15
2017-12-12T04:26:01.952Z,2.14
2017-12-12T04:27:01.953Z,2.20
2017-12-12T04:28:01.958Z,2.20
2017-12-12T04:29:01.971Z,2.14
2017-12-12T04:30:01.965Z,2.18
2017-12-12T04:31:01.971Z,2.14
2017-12-12T04:32:01.979Z,2.08
2017-12-12T04:33:01.975Z,2.14
2017-12-12T04:35:01.983Z,2.14
2017-12-12T04:36:01.992Z,2.18
2017-12-12T04:37:01.998Z,2.18
2017-12-12T04:38:02.003Z,2.12
2017-12-12T04:39:02.007Z,2.19
2017-12-12T04:40:02.005Z,2.18
2017-12-12T04:41:02.128Z,2.18
2017-12-12T04:42:02.016Z,2.12
2017-12-12T04:43:02.908Z,2.15
2017-12-12T04:44:02.020Z,2.11
2017-12-12T04:45:02.033Z,2.12
2017-12-12T04:46:02.036Z,2.20
2017-12-12T04:47:02.128Z,2.19
2017-12-12T04:48:02.042Z,2.22
2017-12-12T04:49:02.050Z,2.22
2017-12-12T04:50:02.055Z,2.26
2017-12-12T04:51:02.058Z,2.27
2017-12-12T04:52:02.065Z,2.27
2017-12-12T04:53:02.062Z,2.26
2017-12-12T04:54:02.070Z,2.29
2017-12-12T04:55:02.065Z,2.27
2017-12-12T04:56:02.075Z,2.27
2017-12-12T04:57:02.077Z,2.27
2017-12-12T04:58:02.075Z,2.36
2017-12-12T04:59:02.095Z,2.27
2017-12-12T05:00:02.093Z,2.30
2017-12-12T05:01:02.098Z,2.25
2017-12-12T05:02:02.099Z,2.26
2017-12-12T05:03:02.104Z,2.29
2017-12-12T05:04:02.109Z,2.25
2017-12-12T05:05:02.119Z,2.18
2017-12-12T05:06:02.123Z,2.15
2017-12-12T05:07:02.122Z,2.14
2017-12-12T05:08:02.129Z,2.18
2017-12-12T05:09:02.133Z,2.08
2017-12-12T05:10:02.140Z,2.07
2017-12-12T05:11:02.146Z,2.12
2017-12-12T05:12:02.143Z,2.09
2017-12-12T05:13:02.149Z,1.98
2017-12-12T05:14:02.156Z,2.02
2017-12-12T05:15:02.156Z,2.07
2017-12-12T05:16:02.149Z,2.12
2017-12-12T05:17:02.162Z,1.93
2017-12-12T05:18:02.174Z,2.05
2017-12-12T05:19:02.181Z,2.01
2017-12-12T05:20:02.187Z,2.02
2017-12-12T05:21:02.184Z,1.88
2017-12-12T05:22:02.191Z,1.89
2017-12-12T05:23:02.197Z,1.92
2017-12-12T05:24:02.199Z,1.89
2017-12-12T05:25:02.215Z,1.86
2017-12-12T05:26:02.206Z,1.86
2017-12-12T05:27:02.208Z,1.86
2017-12-12T05:28:02.321Z,1.85
2017-12-12T05:29:02.216Z,1.81
2017-12-12T05:30:02.223Z,1.85
2017-12-12T05:31:02.223Z,1.82
2017-12-12T05:32:02.229Z,1.88
2017-12-12T05:33:02.236Z,1.90
2017-12-12T05:34:02.241Z,1.92
2017-12-12T05:35:02.245Z,1.92
2017-12-12T05:36:02.245Z,1.83
2017-12-12T05:37:02.251Z,1.95
2017-12-12T05:38:02.255Z,1.93
2017-12-12T05:39:02.260Z,1.90
2017-12-12T05:40:02.258Z,1.93
2017-12-12T05:41:02.274Z,1.92
2017-12-12T05:42:02.268Z,1.90
2017-12-12T05:43:02.268Z,1.92
2017-12-12T05:44:02.277Z,2.01
2017-12-12T05:45:02.280Z,1.90
2017-12-12T05:46:02.287Z,1.92
2017-12-12T05:47:02.296Z,1.82
2017-12-12T05:48:02.296Z,1.85
2017-12-12T05:49:02.295Z,1.85
2017-12-12T05:50:02.300Z,1.88
2017-12-12T05:51:02.346Z,1.89
2017-12-12T05:52:02.308Z,1.83
2017-12-12T05:53:02.322Z,1.89
2017-12-12T05:54:02.318Z,1.90
2017-12-12T05:55:02.345Z,1.93
2017-12-12T05:56:02.347Z,1.89
2017-12-12T05:57:02.351Z,1.88
2017-12-12T05:58:02.336Z,1.89
2017-12-12T05:59:02.340Z,2.07
2017-12-12T06:00:02.346Z,2.01
2017-12-12T06:01:02.392Z,1.95
2017-12-12T06:02:02.356Z,2.00
2017-12-12T06:03:02.371Z,2.02
2017-12-12T06:04:02.365Z,1.82
2017-12-12T06:05:02.377Z,1.89
2017-12-12T06:06:02.370Z,1.95
2017-12-12T06:07:02.373Z,1.88
2017-12-12T06:08:02.375Z,1.85
2017-12-12T06:09:02.371Z,1.95
2017-12-12T06:10:02.390Z,1.89
2017-12-12T06:11:03.432Z,1.93
2017-12-12T06:12:02.390Z,1.95
2017-12-12T06:13:02.397Z,2.00
2017-12-12T06:14:02.397Z,1.89
2017-12-12T06:15:02.410Z,1.88
2017-12-12T06:16:02.408Z,1.85
2017-12-12T06:17:02.410Z,1.95
2017-12-12T06:18:02.450Z,1.88
2017-12-12T06:19:02.420Z,1.89
2017-12-12T06:20:02.426Z,1.92
2017-12-12T06:21:02.427Z,2.00
2017-12-12T06:22:02.427Z,1.88
2017-12-12T06:23:02.430Z,2.00
2017-12-12T06:24:02.460Z,1.98
2017-12-12T06:25:02.444Z,2.02
2017-12-12T06:26:02.454Z,2.02
2017-12-12T06:27:02.463Z,1.90
2017-12-12T06:28:02.461Z,2.01
2017-12-12T06:29:02.474Z,1.95
2017-12-12T06:30:02.487Z,2.08
2017-12-12T06:31:02.469Z,2.00
2017-12-12T06:32:02.474Z,2.08
2017-12-12T06:33:02.502Z,2.05
2017-12-12T06:34:02.490Z,1.90
2017-12-12T06:35:02.482Z,2.09
2017-12-12T06:36:02.494Z,2.05
2017-12-12T06:37:02.498Z,1.95
2017-12-12T06:38:02.499Z,1.93
2017-12-12T06:39:02.503Z,1.95
2017-12-12T06:40:02.512Z,1.93
2017-12-12T06:41:02.510Z,2.11
2017-12-12T06:42:02.514Z,2.00
2017-12-12T06:43:02.522Z,2.09
2017-12-12T06:44:02.527Z,2.12
2017-12-12T06:45:02.534Z,2.07
2017-12-12T06:46:02.530Z,2.09
2017-12-12T06:47:02.533Z,2.05
2017-12-12T06:48:02.541Z,2.04
2017-12-12T06:49:02.551Z,2.09
2017-12-12T06:50:02.548Z,2.09
2017-12-12T06:51:02.551Z,2.08
2017-12-12T06:52:02.570Z,2.09
2017-12-12T06:53:02.559Z,2.05
2017-12-12T06:54:02.643Z,2.05
2017-12-12T06:55:02.597Z,2.09
2017-12-12T06:56:02.567Z,2.11
2017-12-12T06:57:02.576Z,2.11
2017-12-12T06:58:02.584Z,2.04
2017-12-12T06:59:02.582Z,2.08
2017-12-12T07:00:02.587Z,2.08
2017-12-12T07:01:02.590Z,2.11
2017-12-12T07:02:02.596Z,2.23
2017-12-12T07:03:02.603Z,2.12
2017-12-12T07:04:02.605Z,2.23
2017-12-12T07:05:02.716Z,2.12
2017-12-12T07:06:02.608Z,2.14
2017-12-12T07:07:02.619Z,2.20
2017-12-12T07:08:02.608Z,2.15
2017-12-12T07:09:02.620Z,2.08
2017-12-12T07:10:02.619Z,2.12
2017-12-12T07:11:02.630Z,2.07
2017-12-12T07:12:02.637Z,2.14
2017-12-12T07:13:02.648Z,2.02
2017-12-12T07:14:02.642Z,2.09
2017-12-12T07:15:02.653Z,2.00
2017-12-12T07:16:02.648Z,2.07
2017-12-12T07:17:02.658Z,2.07
2017-12-12T07:18:02.649Z,2.08
2017-12-12T07:19:02.658Z,2.09
2017-12-12T07:20:02.665Z,2.09
2017-12-12T07:21:02.672Z,2.02
2017-12-12T07:22:02.677Z,2.09
2017-12-12T07:23:02.738Z,2.09
2017-12-12T07:24:02.681Z,2.07
2017-12-12T07:25:02.694Z,2.05
2017-12-12T07:26:02.700Z,2.09
2017-12-12T07:27:02.694Z,2.08
2017-12-12T07:28:02.690Z,2.02
2017-12-12T07:29:02.700Z,2.02
2017-12-12T07:30:02.705Z,2.15
2017-12-12T07:31:02.729Z,2.14
2017-12-12T07:32:02.711Z,2.02
2017-12-12T07:33:02.727Z,2.05
2017-12-12T07:34:02.714Z,2.11
2017-12-12T07:35:02.727Z,2.05
2017-12-12T07:36:02.732Z,2.11
2017-12-12T07:37:02.732Z,2.05
2017-12-12T07:38:02.738Z,2.07
2017-12-12T07:39:02.746Z,2.08
2017-12-12T07:40:02.750Z,2.02
2017-12-12T07:41:02.744Z,2.04
2017-12-12T07:42:02.748Z,2.15
2017-12-12T07:43:02.804Z,2.09
2017-12-12T07:44:02.760Z,2.14
2017-12-12T07:45:02.770Z,2.14
2017-12-12T07:46:02.775Z,2.20
2017-12-12T07:47:02.776Z,2.26
2017-12-12T07:48:02.778Z,2.25
2017-12-12T07:49:02.789Z,2.23
2017-12-12T07:50:02.785Z,2.29
2017-12-12T07:51:02.794Z,2.23
2017-12-12T07:52:02.797Z,2.26
2017-12-12T07:53:02.800Z,2.26
2017-12-12T07:54:02.800Z,2.43
2017-12-12T07:55:02.818Z,2.29
2017-12-12T07:56:02.869Z,2.37
2017-12-12T07:57:02.861Z,2.44
2017-12-12T07:58:02.974Z,2.29
2017-12-12T08:00:02.832Z,2.38
2017-12-12T08:01:02.843Z,2.38
2017-12-12T08:02:02.832Z,2.40
2017-12-12T08:03:02.837Z,2.43
2017-12-12T08:04:02.839Z,2.37
2017-12-12T08:05:02.845Z,2.33
2017-12-12T08:06:02.850Z,2.41
2017-12-12T08:07:02.855Z,2.43
2017-12-12T08:08:02.863Z,2.38
2017-12-12T08:09:02.868Z,2.37
2017-12-12T08:10:02.868Z,2.41
2017-12-12T08:11:02.874Z,2.45
2017-12-12T08:12:02.880Z,2.38
2017-12-12T08:13:02.885Z,2.47
2017-12-12T08:14:02.889Z,2.45
2017-12-12T08:15:02.893Z,2.43
2017-12-12T08:16:02.894Z,2.40
2017-12-12T08:17:02.888Z,2.37
2017-12-12T08:18:02.907Z,2.56
2017-12-12T08:19:02.909Z,2.41
2017-12-12T08:20:02.913Z,2.43
2017-12-12T08:21:02.909Z,2.48
2017-12-12T08:22:02.918Z,2.40
2017-12-12T08:23:02.919Z,2.44
2017-12-12T08:24:02.927Z,2.38
2017-12-12T08:25:02.933Z,2.43
2017-12-12T08:26:02.931Z,2.40
2017-12-12T08:27:02.938Z,2.45
2017-12-12T08:28:02.965Z,2.44
2017-12-12T08:29:02.945Z,2.41
2017-12-12T08:30:02.947Z,2.43
2017-12-12T08:31:02.948Z,2.40
2017-12-12T08:32:02.954Z,2.41
2017-12-12T08:33:02.971Z,2.40
2017-12-12T08:34:02.968Z,2.47
2017-12-12T08:35:02.975Z,2.32
2017-12-12T08:36:02.992Z,2.43
2017-12-12T08:37:02.978Z,2.51
2017-12-12T08:38:02.990Z,2.40
2017-12-12T08:40:03.051Z,2.50
2017-12-12T08:41:02.995Z,2.45
2017-12-12T08:42:03.013Z,2.53
2017-12-12T08:43:03.209Z,2.44
2017-12-12T08:44:03.025Z,2.38
2017-12-12T08:45:03.022Z,2.41
2017-12-12T08:47:03.065Z,2.51
2017-12-12T08:48:03.028Z,2.44
2017-12-12T08:49:03.030Z,2.45
2017-12-12T08:50:03.045Z,2.40
2017-12-12T08:51:03.048Z,2.50
2017-12-12T08:52:03.047Z,2.48
2017-12-12T08:53:03.088Z,2.47
2017-12-12T08:54:03.056Z,2.53
2017-12-12T08:55:03.061Z,2.45
2017-12-12T08:56:03.195Z,2.50
2017-12-12T08:57:03.070Z,2.43
2017-12-12T08:59:03.072Z,2.56
2017-12-12T09:00:03.103Z,2.37
2017-12-12T09:01:03.078Z,2.37
2017-12-12T09:02:03.081Z,2.33
2017-12-12T09:03:03.086Z,2.48
2017-12-12T09:04:03.100Z,2.37
2017-12-12T09:05:03.091Z,2.40
2017-12-12T09:06:03.174Z,2.38
2017-12-12T09:07:03.104Z,2.41
2017-12-12T09:08:03.113Z,2.51
2017-12-12T09:09:03.118Z,2.53
2017-12-12T09:10:03.195Z,2.43
2017-12-12T09:11:03.159Z,2.50
2017-12-12T09:12:03.187Z,2.41
2017-12-12T09:13:03.135Z,2.53
2017-12-12T09:14:03.141Z,2.40
2017-12-12T09:15:03.179Z,2.43
2017-12-12T09:16:03.154Z,2.43
2017-12-12T09:17:03.150Z,2.38
2017-12-12T09:18:03.163Z,2.36
2017-12-12T09:19:03.157Z,2.41
2017-12-12T09:20:03.167Z,2.33
2017-12-12T09:21:03.195Z,2.36
2017-12-12T09:22:03.190Z,2.40
2017-12-12T09:23:03.177Z,2.40
2017-12-12T09:24:03.185Z,2.40
2017-12-12T09:25:03.186Z,2.27
2017-12-12T09:26:03.192Z,2.36
2017-12-12T09:27:03.211Z,2.40
2017-12-12T09:28:03.199Z,2.25
2017-12-12T09:29:03.209Z,2.36
2017-12-12T09:30:03.219Z,2.38
2017-12-12T09:31:03.226Z,2.32
2017-12-12T09:32:03.218Z,2.26
2017-12-12T09:33:03.225Z,2.40
2017-12-12T09:34:03.227Z,2.36
2017-12-12T09:35:03.509Z,2.40
2017-12-12T09:36:03.264Z,2.37
2017-12-12T09:37:03.244Z,2.32
2017-12-12T09:38:03.242Z,2.37
2017-12-12T09:39:03.246Z,2.27
2017-12-12T09:40:03.241Z,2.29
2017-12-12T09:41:03.250Z,2.33
2017-12-12T09:42:03.429Z,2.30
2017-12-12T09:43:03.259Z,2.26
2017-12-12T09:44:03.270Z,2.43
2017-12-12T09:45:03.271Z,2.30
2017-12-12T09:46:03.278Z,2.23
2017-12-12T09:47:03.278Z,2.32
2017-12-12T09:48:03.325Z,2.23
2017-12-12T09:49:03.285Z,2.27
2017-12-12T09:50:03.291Z,2.27
2017-12-12T09:51:03.293Z,2.33
2017-12-12T09:52:03.300Z,2.27
2017-12-12T09:54:03.313Z,2.41
2017-12-12T09:55:03.320Z,2.37
2017-12-12T09:56:03.318Z,2.41
2017-12-12T09:57:03.333Z,2.23
2017-12-12T09:58:03.418Z,2.22
2017-12-12T09:59:03.332Z,2.26
2017-12-12T10:00:03.332Z,2.25
2017-12-12T10:01:03.334Z,2.27
2017-12-12T10:02:03.393Z,2.25
2017-12-12T10:03:03.342Z,2.12
2017-12-12T10:04:03.352Z,2.26
2017-12-12T10:05:03.354Z,2.32
2017-12-12T10:06:03.373Z,2.20
2017-12-12T10:07:03.363Z,2.26
2017-12-12T10:08:03.366Z,2.23
2017-12-12T10:09:03.363Z,2.26
2017-12-12T10:10:03.376Z,2.26
2017-12-12T10:11:03.376Z,2.12
2017-12-12T10:12:03.382Z,2.05
2017-12-12T10:13:03.379Z,2.07
2017-12-12T10:14:03.403Z,2.07
2017-12-12T10:15:03.385Z,2.07
2017-12-12T10:16:03.438Z,2.07
2017-12-12T10:17:03.404Z,2.11
2017-12-12T10:18:03.404Z,2.05
2017-12-12T10:19:03.413Z,2.08
2017-12-12T10:20:03.411Z,2.05
2017-12-12T10:21:03.423Z,2.08
2017-12-12T10:22:03.427Z,2.08
2017-12-12T10:23:03.428Z,2.05
2017-12-12T10:24:03.434Z,2.11
2017-12-12T10:25:03.432Z,2.08
2017-12-12T10:26:03.434Z,2.04
2017-12-12T10:27:03.443Z,1.89
2017-12-12T10:28:03.479Z,1.92
2017-12-12T10:29:03.462Z,1.90
2017-12-12T10:30:03.459Z,1.98
2017-12-12T10:31:03.470Z,1.98
2017-12-12T10:32:03.466Z,2.01
2017-12-12T10:33:03.475Z,1.88
2017-12-12T10:34:03.479Z,1.85
2017-12-12T10:35:03.481Z,1.85
2017-12-12T10:36:03.484Z,1.71
2017-12-12T10:37:03.488Z,1.86
2017-12-12T10:38:03.491Z,1.77
2017-12-12T10:39:03.553Z,1.77
2017-12-12T10:40:03.498Z,1.72
2017-12-12T10:41:03.523Z,1.82
2017-12-12T10:42:03.519Z,1.79
2017-12-12T10:43:03.510Z,1.71
2017-12-12T10:44:03.500Z,1.83
2017-12-12T10:45:03.516Z,1.77
2017-12-12T10:46:03.519Z,1.75
2017-12-12T10:47:03.527Z,1.82
2017-12-12T10:48:03.532Z,1.79
2017-12-12T10:49:03.538Z,1.81
2017-12-12T10:50:03.538Z,1.81
2017-12-12T10:51:03.542Z,1.81
2017-12-12T10:52:03.559Z,1.77
2017-12-12T10:53:03.561Z,1.71
2017-12-12T10:54:03.554Z,1.79
2017-12-12T10:55:03.557Z,1.81
2017-12-12T10:56:03.569Z,1.83
2017-12-12T10:57:03.576Z,1.85
2017-12-12T10:58:03.569Z,1.77
2017-12-12T10:59:03.576Z,1.85
2017-12-12T11:00:03.576Z,1.85
2017-12-12T11:01:03.585Z,1.85
2017-12-12T11:02:03.585Z,1.68
2017-12-12T11:03:03.600Z,1.77
2017-12-12T11:04:03.603Z,1.71
2017-12-12T11:05:03.594Z,1.82
2017-12-12T11:06:03.603Z,1.82
2017-12-12T11:07:03.666Z,1.79
2017-12-12T11:08:03.607Z,1.77
2017-12-12T11:09:03.624Z,1.88
2017-12-12T11:10:03.616Z,1.75
2017-12-12T11:11:03.616Z,1.75
2017-12-12T11:12:03.625Z,1.79
2017-12-12T11:13:03.624Z,1.79
2017-12-12T11:14:03.647Z,1.68
2017-12-12T11:15:03.626Z,1.81
2017-12-12T11:16:03.631Z,1.83
2017-12-12T11:17:03.642Z,1.85
2017-12-12T11:18:03.639Z,1.74
2017-12-12T11:19:03.651Z,1.88
2017-12-12T11:20:03.651Z,1.86
2017-12-12T11:21:03.663Z,1.81
2017-12-12T11:22:03.668Z,1.85
2017-12-12T11:23:03.664Z,1.89
2017-12-12T11:24:03.672Z,1.88
2017-12-12T11:25:03.676Z,1.79
2017-12-12T11:26:03.678Z,1.74
2017-12-12T11:27:03.680Z,1.77
2017-12-12T11:28:03.692Z,1.83
2017-12-12T11:29:03.691Z,1.83
2017-12-12T11:30:03.697Z,1.86
2017-12-12T11:31:03.704Z,1.79
2017-12-12T11:32:03.699Z,1.90
2017-12-12T11:33:03.698Z,1.89
2017-12-12T11:34:03.708Z,1.85
2017-12-12T11:35:03.708Z,1.86
2017-12-12T11:36:03.714Z,1.82
2017-12-12T11:37:03.718Z,1.82
2017-12-12T11:38:03.721Z,1.88
2017-12-12T11:39:03.730Z,1.95
2017-12-12T11:40:03.741Z,1.85
2017-12-12T11:41:03.748Z,1.74
2017-12-12T11:42:03.739Z,1.85
2017-12-12T11:43:03.733Z,1.89
2017-12-12T11:44:03.743Z,1.88
2017-12-12T11:45:03.754Z,1.85
2017-12-12T11:46:03.765Z,1.89
2017-12-12T11:47:03.768Z,1.95
2017-12-12T11:48:03.760Z,1.89
2017-12-12T11:49:03.766Z,1.89
2017-12-12T11:50:03.782Z,1.98
2017-12-12T11:51:03.774Z,2.02
2017-12-12T11:52:03.781Z,2.01
2017-12-12T11:53:03.782Z,1.95
2017-12-12T11:54:03.793Z,2.04
2017-12-12T11:55:03.790Z,2.01
2017-12-12T11:56:03.800Z,2.08
2017-12-12T11:57:03.805Z,2.00
2017-12-12T11:58:03.808Z,2.08
2017-12-12T11:59:03.814Z,2.04
2017-12-12T12:00:03.809Z,2.02
2017-12-12T12:01:03.819Z,2.01
2017-12-12T12:02:03.828Z,2.08
2017-12-12T12:03:03.826Z,2.05
2017-12-12T12:04:03.830Z,1.93
2017-12-12T12:05:03.830Z,2.09
2017-12-12T12:06:03.851Z,2.08
2017-12-12T12:07:03.846Z,2.08
2017-12-12T12:08:03.848Z,2.20
2017-12-12T12:09:03.849Z,2.25
2017-12-12T12:10:03.850Z,2.29
2017-12-12T12:11:03.973Z,2.25
2017-12-12T12:12:03.867Z,2.25
2017-12-12T12:13:03.867Z,2.40
2017-12-12T12:14:03.872Z,2.27
2017-12-12T12:15:03.870Z,2.32
2017-12-12T12:16:03.875Z,2.26
2017-12-12T12:17:03.885Z,2.33
2017-12-12T12:18:03.882Z,2.30
2017-12-12T12:19:03.880Z,2.41
2017-12-12T12:20:03.894Z,2.30
2017-12-12T12:21:04.436Z,2.40
2017-12-12T12:22:03.898Z,2.40
2017-12-12T12:23:03.970Z,2.48
2017-12-12T12:24:03.927Z,2.50
2017-12-12T12:25:03.914Z,2.51
2017-12-12T12:26:03.915Z,2.55
2017-12-12T12:27:03.916Z,2.56
2017-12-12T12:28:03.919Z,2.56
2017-12-12T12:29:03.945Z,2.63
2017-12-12T12:30:03.936Z,2.58
2017-12-12T12:31:03.954Z,2.68
2017-12-12T12:32:03.942Z,2.68
2017-12-12T12:33:03.957Z,2.62
2017-12-12T12:34:03.974Z,2.56
2017-12-12T12:35:03.960Z,2.68
2017-12-12T12:36:03.980Z,2.62
2017-12-12T12:37:03.975Z,2.69
2017-12-12T12:38:03.983Z,2.69
2017-12-12T12:39:03.979Z,2.71
2017-12-12T12:40:03.980Z,2.68
2017-12-12T12:41:03.981Z,2.69
2017-12-12T12:42:03.997Z,2.77
2017-12-12T12:43:03.987Z,2.76
2017-12-12T12:44:03.984Z,2.86
2017-12-12T12:45:04.005Z,2.87
2017-12-12T12:46:04.021Z,2.99
2017-12-12T12:47:04.019Z,2.99
2017-12-12T12:48:04.009Z,2.92
2017-12-12T12:49:04.020Z,2.94
2017-12-12T12:50:04.028Z,2.92
2017-12-12T12:51:04.056Z,2.94
2017-12-12T12:52:04.037Z,2.90
2017-12-12T12:53:04.038Z,2.90
2017-12-12T12:54:04.045Z,2.97
2017-12-12T12:55:04.040Z,2.98
2017-12-12T12:56:04.059Z,2.92
2017-12-12T12:57:04.058Z,2.98
2017-12-12T12:58:04.058Z,3.02
2017-12-12T12:59:04.064Z,3.04
2017-12-12T13:00:04.088Z,3.02
2017-12-12T13:01:04.077Z,2.95
2017-12-12T13:02:04.154Z,3.01
2017-12-12T13:03:04.083Z,2.95
2017-12-12T13:04:04.086Z,2.98
2017-12-12T13:05:04.163Z,2.99
2017-12-12T13:06:04.098Z,3.01
2017-12-12T13:07:04.109Z,3.07
2017-12-12T13:08:04.105Z,3.12
2017-12-12T13:09:04.115Z,3.02
2017-12-12T13:10:04.122Z,3.02
2017-12-12T13:11:04.120Z,3.19
2017-12-12T13:12:04.130Z,3.02
2017-12-12T13:13:04.126Z,3.10
2017-12-12T13:14:04.132Z,3.12
2017-12-12T13:15:04.142Z,3.17
2017-12-12T13:16:04.188Z,3.22
2017-12-12T13:17:04.175Z,3.13
2017-12-12T13:18:04.155Z,3.20
2017-12-12T13:19:04.157Z,3.15
2017-12-12T13:20:04.156Z,3.20
2017-12-12T13:21:04.174Z,3.16
2017-12-12T13:22:04.169Z,3.15
2017-12-12T13:23:04.180Z,3.13
2017-12-12T13:24:04.185Z,3.15
2017-12-12T13:25:04.211Z,3.10
2017-12-12T13:26:04.194Z,3.17
2017-12-12T13:27:04.195Z,3.17
2017-12-12T13:28:04.206Z,3.16
2017-12-12T13:29:04.234Z,3.19